Time;durP1;ratioP1;P1;durP2;ratioP2;P2;SDS_P1;SDS_P2;PMS_P1;PMS_P2;Temp;Humidity;BMP_temperature;BMP_pressure;BME280_temperature;BME280_humidity;BME280_pressure;Samples;Min_cycle;Max_cycle;Signal;HPM_P1;HPM_P2
2021/06/11 00:00:58;;;;;;;2.80;2.60;;;;;24.20;100844.00;;;;2070397;28;20202;-59
2021/06/11 00:01:58;;;;;;;2.90;2.70;;;;;24.20;100844.00;;;;2074510;28;20348;-59
2021/06/11 00:02:59;;;;;;;2.47;2.37;;;;;24.20;100852.00;;;;2079004;28;20259;-58
2021/06/11 00:03:59;;;;;;;3.10;2.90;;;;;24.20;100849.00;;;;2073841;28;20217;-58
2021/06/11 00:04:59;;;;;;;3.00;2.80;;;;;24.20;100846.00;;;;2073975;28;20590;-57
2021/06/11 00:06:00;;;;;;;2.47;2.37;;;;;24.20;100852.00;;;;2072757;28;20217;-58
2021/06/11 00:07:00;;;;;;;2.80;2.60;;;;;24.20;100848.00;;;;2078769;28;20217;-59
2021/06/11 00:08:00;;;;;;;3.00;2.80;;;;;24.20;100855.00;;;;2078464;28;20296;-57
2021/06/11 00:09:01;;;;;;;2.90;2.70;;;;;24.00;100849.00;;;;2071493;28;20348;-60
2021/06/11 00:10:03;;;;;;;2.80;2.60;;;;;24.20;100853.00;;;;2095034;28;20266;-58
2021/06/11 00:11:03;;;;;;;2.97;2.78;;;;;24.20;100848.00;;;;2090345;28;20212;-57
2021/06/11 00:12:04;;;;;;;2.70;2.60;;;;;24.20;100853.00;;;;2079030;28;20239;-58
2021/06/11 00:13:05;;;;;;;2.40;2.30;;;;;24.20;100853.00;;;;2079178;28;20317;-58
2021/06/11 00:14:05;;;;;;;3.03;2.83;;;;;24.20;100857.00;;;;2078445;28;20806;-58
2021/06/11 00:15:07;;;;;;;2.90;2.70;;;;;24.20;100856.00;;;;2078141;28;20225;-56
2021/06/11 00:16:07;;;;;;;2.80;2.70;;;;;24.20;100855.00;;;;2073253;28;20225;-58
2021/06/11 00:17:08;;;;;;;2.47;2.37;;;;;24.20;100852.00;;;;2078950;28;20706;-58
2021/06/11 00:18:09;;;;;;;2.90;2.70;;;;;24.20;100858.00;;;;2078769;28;20687;-58
2021/06/11 00:19:09;;;;;;;3.30;3.10;;;;;24.20;100856.00;;;;2078886;28;20214;-59
2021/06/11 00:20:10;;;;;;;2.80;2.60;;;;;24.20;100855.00;;;;2079397;28;20213;-61
2021/06/11 00:21:10;;;;;;;2.50;2.40;;;;;24.20;100850.00;;;;2079656;28;20213;-56
2021/06/11 00:22:11;;;;;;;2.87;2.67;;;;;24.20;100856.00;;;;2079207;28;20266;-59
2021/06/11 00:23:11;;;;;;;3.00;2.80;;;;;24.20;100847.00;;;;2072681;28;20221;-58
2021/06/11 00:24:11;;;;;;;2.50;2.30;;;;;24.20;100855.00;;;;2072600;28;20230;-60
2021/06/11 00:25:14;;;;;;;2.57;2.47;;;;;24.20;100852.00;;;;2072642;28;20222;-57
2021/06/11 00:26:14;;;;;;;3.20;3.00;;;;;24.20;100860.00;;;;2076804;28;20225;-57
2021/06/11 00:27:14;;;;;;;2.93;2.73;;;;;24.20;100848.00;;;;2080800;28;20213;-56
2021/06/11 00:28:15;;;;;;;2.87;2.67;;;;;24.20;100854.00;;;;2080725;28;20578;-56
2021/06/11 00:29:15;;;;;;;2.77;2.57;;;;;24.20;100848.00;;;;2078305;28;20225;-56
2021/06/11 00:30:16;;;;;;;2.70;2.50;;;;;24.20;100844.00;;;;2080796;28;20249;-59
2021/06/11 00:31:17;;;;;;;2.90;2.70;;;;;24.20;100851.00;;;;2072059;28;20218;-60
2021/06/11 00:32:17;;;;;;;2.70;2.50;;;;;24.20;100855.00;;;;2080625;28;20222;-59
2021/06/11 00:33:17;;;;;;;3.40;3.10;;;;;24.20;100844.00;;;;2080502;28;20275;-61
2021/06/11 00:34:18;;;;;;;2.77;2.57;;;;;24.20;100858.00;;;;2080699;28;20218;-59
2021/06/11 00:35:18;;;;;;;2.80;2.63;;;;;24.20;100849.00;;;;2080710;28;20229;-60
2021/06/11 00:36:18;;;;;;;3.33;3.13;;;;;24.20;100847.00;;;;2080454;28;20248;-58
2021/06/11 00:37:19;;;;;;;3.07;2.87;;;;;24.20;100853.00;;;;2073560;28;20309;-58
2021/06/11 00:38:19;;;;;;;2.90;2.70;;;;;24.20;100851.00;;;;2072618;28;20768;-60
2021/06/11 00:39:19;;;;;;;2.47;2.37;;;;;24.20;100851.00;;;;2072419;28;20583;-59
2021/06/11 00:40:20;;;;;;;2.73;2.63;;;;;24.20;100847.00;;;;2072613;28;20227;-59
2021/06/11 00:41:20;;;;;;;2.80;2.60;;;;;24.20;100855.00;;;;2070911;28;20225;-60
2021/06/11 00:42:20;;;;;;;3.20;3.00;;;;;24.20;100844.00;;;;2072603;28;20220;-57
2021/06/11 00:43:21;;;;;;;2.57;2.37;;;;;24.20;100844.00;;;;2072464;28;20297;-58
2021/06/11 00:44:21;;;;;;;2.80;2.60;;;;;24.20;100839.00;;;;2072925;28;20230;-59
2021/06/11 00:45:22;;;;;;;3.00;2.80;;;;;24.20;100848.00;;;;2079782;28;20310;-61
2021/06/11 00:46:22;;;;;;;3.03;2.83;;;;;24.20;100847.00;;;;2076526;28;20214;-60
2021/06/11 00:47:22;;;;;;;3.00;2.80;;;;;24.00;100845.00;;;;2080700;28;20271;-60
2021/06/11 00:48:23;;;;;;;3.00;2.80;;;;;24.20;100844.00;;;;2077088;28;20228;-59
2021/06/11 00:49:23;;;;;;;2.53;2.40;;;;;24.20;100850.00;;;;2071736;28;20333;-59
2021/06/11 00:50:25;;;;;;;3.00;2.70;;;;;24.20;100846.00;;;;2071452;28;20229;-58
2021/06/11 00:51:26;;;;;;;3.40;3.20;;;;;24.20;100835.00;;;;2071452;28;20214;-59
2021/06/11 00:52:26;;;;;;;2.90;2.70;;;;;24.20;100849.00;;;;2072574;28;20220;-63
2021/06/11 00:53:26;;;;;;;2.90;2.70;;;;;24.20;100847.00;;;;2071757;28;20210;-63
2021/06/11 00:54:27;;;;;;;2.87;2.67;;;;;24.20;100838.00;;;;2079914;28;20263;-59
2021/06/11 00:55:27;;;;;;;2.77;2.57;;;;;24.20;100838.00;;;;2071418;28;20222;-58
2021/06/11 00:56:27;;;;;;;2.73;2.53;;;;;24.20;100846.00;;;;2079630;28;20242;-60
2021/06/11 00:57:28;;;;;;;3.07;2.87;;;;;24.20;100843.00;;;;2079439;28;20205;-60
2021/06/11 00:58:28;;;;;;;2.80;2.60;;;;;24.20;100844.00;;;;2079677;28;20202;-61
2021/06/11 00:59:28;;;;;;;3.03;2.83;;;;;24.20;100843.00;;;;2074111;28;20206;-58
2021/06/11 01:00:29;;;;;;;2.40;2.30;;;;;24.20;100844.00;;;;2071669;28;20576;-57
2021/06/11 01:01:30;;;;;;;2.90;2.73;;;;;24.20;100845.00;;;;2078324;28;20274;-59
2021/06/11 01:02:30;;;;;;;2.83;2.63;;;;;24.20;100845.00;;;;2072275;28;20625;-56
2021/06/11 01:03:30;;;;;;;2.60;2.50;;;;;24.10;100838.00;;;;2072172;28;20699;-58
2021/06/11 01:04:31;;;;;;;2.80;2.60;;;;;24.10;100836.00;;;;2076180;28;20219;-60
2021/06/11 01:05:31;;;;;;;2.93;2.73;;;;;24.20;100838.00;;;;2072241;28;20221;-57
2021/06/11 01:06:31;;;;;;;2.60;2.40;;;;;24.20;100836.00;;;;2071853;28;20715;-58
2021/06/11 01:07:32;;;;;;;2.53;2.43;;;;;24.20;100837.00;;;;2072046;28;20552;-61
2021/06/11 01:08:32;;;;;;;2.80;2.60;;;;;24.20;100837.00;;;;2071609;28;20265;-60
2021/06/11 01:09:34;;;;;;;2.67;2.47;;;;;24.10;100835.00;;;;2079440;28;20206;-60
2021/06/11 01:10:35;;;;;;;2.70;2.50;;;;;24.20;100836.00;;;;2079742;28;20217;-57
2021/06/11 01:11:37;;;;;;;2.63;2.50;;;;;24.20;100833.00;;;;2078544;28;20245;-56
2021/06/11 01:12:37;;;;;;;2.40;2.30;;;;;24.10;100837.00;;;;2077176;28;20319;-59
2021/06/11 01:13:38;;;;;;;2.73;2.57;;;;;24.10;100839.00;;;;2071348;28;20206;-57
2021/06/11 01:14:38;;;;;;;2.60;2.40;;;;;24.10;100843.00;;;;2075893;28;20214;-58
2021/06/11 01:15:39;;;;;;;3.10;2.90;;;;;24.20;100845.00;;;;2073723;28;20475;-60
2021/06/11 01:16:39;;;;;;;3.00;2.80;;;;;24.10;100846.00;;;;2072974;28;20223;-59
2021/06/11 01:17:40;;;;;;;2.93;2.73;;;;;24.10;100843.00;;;;2078925;28;20694;-58
2021/06/11 01:18:40;;;;;;;3.00;2.80;;;;;24.20;100839.00;;;;2087853;28;20212;-60
2021/06/11 01:19:45;;;;;;;2.90;2.70;;;;;24.10;100839.00;;;;2087933;28;20204;-60
2021/06/11 01:20:46;;;;;;;2.67;2.53;;;;;24.10;100850.00;;;;2079585;28;20241;-58
2021/06/11 01:22:07;;;;;;;3.30;3.00;;;;;24.20;100837.00;;;;2078917;28;20701;-59
2021/06/11 01:23:45;;;;;;;2.83;2.60;;;;;24.10;100835.00;;;;2078866;28;20539;-59
2021/06/11 01:25:10;;;;;;;2.50;2.40;;;;;24.10;100835.00;;;;2078502;28;21355;-56
2021/06/11 01:26:28;;;;;;;2.97;2.78;;;;;24.10;100837.00;;;;2070255;28;20599;-58
2021/06/11 01:27:28;;;;;;;2.72;2.60;;;;;24.10;100835.00;;;;2071382;28;20221;-59
2021/06/11 01:28:28;;;;;;;2.57;2.37;;;;;24.10;100832.00;;;;2070721;28;20241;-59
2021/06/11 01:29:29;;;;;;;2.60;2.50;;;;;24.10;100835.00;;;;2078433;28;20218;-58
2021/06/11 01:30:31;;;;;;;3.10;2.90;;;;;24.10;100833.00;;;;2071259;28;20284;-57
2021/06/11 01:31:32;;;;;;;2.60;2.40;;;;;24.10;100837.00;;;;2069248;28;20449;-64
2021/06/11 01:32:33;;;;;;;2.47;2.38;;;;;24.10;100831.00;;;;2087206;28;20624;-57
2021/06/11 01:33:33;;;;;;;2.70;2.50;;;;;24.10;100830.00;;;;2070998;28;20271;-60
2021/06/11 01:34:36;;;;;;;2.63;2.50;;;;;24.10;100830.00;;;;2079509;28;20205;-60
2021/06/11 01:35:58;;;;;;;2.90;2.70;;;;;24.10;100831.00;;;;2079247;28;20224;-57
2021/06/11 01:37:06;;;;;;;2.85;2.65;;;;;24.10;100829.00;;;;2073951;28;20603;-57
2021/06/11 01:38:07;;;;;;;2.85;2.65;;;;;24.10;100832.00;;;;2071055;28;20217;-58
2021/06/11 01:39:08;;;;;;;2.80;2.60;;;;;24.10;100835.00;;;;2071340;28;20298;-62
2021/06/11 01:40:10;;;;;;;2.90;2.70;;;;;24.10;100836.00;;;;2071444;28;20293;-57
2021/06/11 01:41:13;;;;;;;2.90;2.70;;;;;24.10;100834.00;;;;2071135;28;20449;-58
2021/06/11 01:42:13;;;;;;;2.70;2.50;;;;;24.10;100834.00;;;;2075775;28;20213;-60
2021/06/11 01:43:14;;;;;;;2.90;2.70;;;;;24.10;100823.00;;;;2078582;28;20243;-60
2021/06/11 01:44:14;;;;;;;3.10;2.90;;;;;24.10;100828.00;;;;2075115;28;20233;-59
2021/06/11 01:45:15;;;;;;;3.07;2.87;;;;;24.00;100825.00;;;;2083033;28;20459;-60
2021/06/11 01:46:17;;;;;;;2.93;2.73;;;;;24.10;100833.00;;;;2084080;28;20222;-59
2021/06/11 01:47:17;;;;;;;2.92;2.72;;;;;24.10;100828.00;;;;2071045;28;20210;-60
2021/06/11 01:48:18;;;;;;;2.60;2.40;;;;;24.10;100827.00;;;;2071218;28;20202;-60
2021/06/11 01:49:18;;;;;;;2.77;2.57;;;;;24.10;100835.00;;;;2079521;28;20224;-60
2021/06/11 01:50:23;;;;;;;2.70;2.60;;;;;24.10;100830.00;;;;2065250;28;20222;-57
2021/06/11 01:51:24;;;;;;;2.90;2.70;;;;;24.10;100831.00;;;;2086999;28;20225;-60
2021/06/11 01:52:26;;;;;;;2.83;2.63;;;;;24.10;100834.00;;;;2087028;28;20303;-57
2021/06/11 01:53:26;;;;;;;3.03;2.83;;;;;24.10;100826.00;;;;2079143;28;20460;-58
2021/06/11 01:54:26;;;;;;;2.60;2.40;;;;;24.10;100825.00;;;;2073991;28;20565;-56
2021/06/11 01:55:27;;;;;;;2.57;2.37;;;;;24.10;100823.00;;;;2071112;28;20253;-59
2021/06/11 01:56:28;;;;;;;3.03;2.83;;;;;24.10;100828.00;;;;2079050;28;20217;-60
2021/06/11 01:57:28;;;;;;;2.83;2.63;;;;;24.10;100825.00;;;;2078889;28;20445;-60
2021/06/11 01:58:30;;;;;;;2.73;2.53;;;;;24.10;100824.00;;;;2079179;28;20213;-56
2021/06/11 01:59:30;;;;;;;2.67;2.47;;;;;24.10;100828.00;;;;2071000;28;20253;-60
2021/06/11 02:00:31;;;;;;;2.80;2.60;;;;;24.10;100826.00;;;;2070961;28;20284;-57
2021/06/11 02:01:32;;;;;;;2.90;2.70;;;;;24.10;100826.00;;;;2072025;28;20218;-59
2021/06/11 02:02:34;;;;;;;2.80;2.60;;;;;24.10;100825.00;;;;2073926;28;20218;-58
2021/06/11 02:03:35;;;;;;;2.88;2.67;;;;;24.10;100831.00;;;;2070258;28;20238;-57
2021/06/11 02:04:35;;;;;;;3.00;2.70;;;;;24.10;100826.00;;;;2079242;28;20225;-57
2021/06/11 02:05:36;;;;;;;2.93;2.73;;;;;24.10;100843.00;;;;2079324;28;20221;-58
2021/06/11 02:06:36;;;;;;;2.53;2.40;;;;;24.10;100819.00;;;;2053369;28;20880;-63
2021/06/11 02:07:37;;;;;;;2.30;2.20;;;;;24.10;100832.00;;;;2053438;28;20274;-61
2021/06/11 02:08:37;;;;;;;2.90;2.70;;;;;24.10;100829.00;;;;2074348;28;20209;-59
2021/06/11 02:09:38;;;;;;;2.90;2.60;;;;;24.10;100832.00;;;;2091850;28;20697;-58
2021/06/11 02:10:38;;;;;;;3.00;2.80;;;;;24.10;100827.00;;;;2095565;28;20201;-56
2021/06/11 02:11:41;;;;;;;2.50;2.40;;;;;24.10;100832.00;;;;2078030;28;20875;-58
2021/06/11 02:12:41;;;;;;;2.88;2.67;;;;;24.10;100820.00;;;;2078954;28;20214;-60
2021/06/11 02:13:43;;;;;;;2.77;2.63;;;;;24.10;100823.00;;;;2077382;28;20224;-60
2021/06/11 02:14:44;;;;;;;2.97;2.78;;;;;24.10;100822.00;;;;2070940;28;20210;-58
2021/06/11 02:15:44;;;;;;;2.90;2.70;;;;;24.10;100823.00;;;;2082874;28;20267;-56
2021/06/11 02:16:45;;;;;;;2.80;2.60;;;;;24.10;100824.00;;;;2081901;28;20218;-57
2021/06/11 02:17:46;;;;;;;2.40;2.30;;;;;24.10;100835.00;;;;2070856;28;20229;-57
2021/06/11 02:18:46;;;;;;;3.17;2.97;;;;;24.10;100831.00;;;;2070792;28;20680;-59
2021/06/11 02:19:47;;;;;;;2.90;2.70;;;;;24.10;100819.00;;;;2071026;28;20260;-58
2021/06/11 02:20:48;;;;;;;2.93;2.53;;;;;24.10;100826.00;;;;2071029;28;20694;-60
2021/06/11 02:21:48;;;;;;;2.70;2.50;;;;;24.10;100822.00;;;;2061644;28;20215;-60
2021/06/11 02:22:48;;;;;;;2.67;2.47;;;;;24.10;100816.00;;;;2062904;28;20868;-60
2021/06/11 02:23:49;;;;;;;2.60;2.40;;;;;24.10;100829.00;;;;2084638;28;20209;-58
2021/06/11 02:24:49;;;;;;;2.53;2.43;;;;;24.10;100824.00;;;;2087404;28;20366;-56
2021/06/11 02:25:49;;;;;;;2.53;2.33;;;;;24.10;100827.00;;;;2071509;28;20268;-57
2021/06/11 02:26:50;;;;;;;2.80;2.60;;;;;24.10;100821.00;;;;2071623;28;20682;-59
2021/06/11 02:27:50;;;;;;;3.03;2.83;;;;;24.10;100827.00;;;;2071421;28;20597;-60
2021/06/11 02:28:51;;;;;;;3.10;2.90;;;;;24.10;100817.00;;;;2079076;28;20206;-59
2021/06/11 02:29:51;;;;;;;2.60;2.40;;;;;24.10;100818.00;;;;2079079;28;20855;-60
2021/06/11 02:30:51;;;;;;;2.60;2.50;;;;;24.10;100825.00;;;;2071548;28;20222;-56
2021/06/11 02:31:52;;;;;;;2.93;2.73;;;;;24.10;100823.00;;;;2070193;28;20309;-59
2021/06/11 02:32:52;;;;;;;2.60;2.50;;;;;24.10;100828.00;;;;2071543;28;20296;-58
2021/06/11 02:33:52;;;;;;;3.00;2.80;;;;;24.10;100824.00;;;;2071229;28;20214;-59
2021/06/11 02:34:53;;;;;;;2.70;2.50;;;;;24.10;100819.00;;;;2071628;28;20268;-60
2021/06/11 02:35:54;;;;;;;2.83;2.60;;;;;24.10;100822.00;;;;2071716;28;20217;-59
2021/06/11 02:36:54;;;;;;;2.50;2.40;;;;;24.10;100815.00;;;;2077226;28;20225;-58
2021/06/11 02:37:55;;;;;;;3.10;2.80;;;;;24.10;100820.00;;;;2079243;28;20829;-59
2021/06/11 02:38:55;;;;;;;2.67;2.53;;;;;24.10;100817.00;;;;2079696;28;20819;-59
2021/06/11 02:39:55;;;;;;;2.57;2.37;;;;;24.10;100820.00;;;;2079378;28;20641;-58
2021/06/11 02:40:56;;;;;;;2.97;2.77;;;;;24.10;100811.00;;;;2078538;28;20574;-56
2021/06/11 02:42:06;;;;;;;2.70;2.50;;;;;24.10;100819.00;;;;2078020;28;20769;-59
2021/06/11 02:43:08;;;;;;;3.05;2.85;;;;;24.10;100808.00;;;;2071669;28;20846;-58
2021/06/11 02:44:08;;;;;;;2.78;2.58;;;;;24.10;100815.00;;;;2073931;28;20580;-59
2021/06/11 02:45:11;;;;;;;2.70;2.50;;;;;24.10;100811.00;;;;2073171;28;20317;-61
2021/06/11 02:46:13;;;;;;;2.72;2.53;;;;;24.10;100819.00;;;;2080036;28;20212;-60
2021/06/11 02:47:21;;;;;;;2.35;2.25;;;;;24.10;100804.00;;;;2078168;28;20216;-60
2021/06/11 02:48:24;;;;;;;2.92;2.72;;;;;24.10;100811.00;;;;2071224;28;20214;-59
2021/06/11 02:49:34;;;;;;;2.75;2.55;;;;;24.10;100806.00;;;;2078661;28;20272;-58
2021/06/11 02:50:45;;;;;;;2.67;2.47;;;;;24.10;100808.00;;;;2077519;28;20214;-58
2021/06/11 02:51:48;;;;;;;3.00;2.80;;;;;24.10;100809.00;;;;2068776;28;20313;-57
2021/06/11 02:52:52;;;;;;;2.95;2.75;;;;;24.10;100809.00;;;;2072654;28;20317;-56
2021/06/11 02:53:53;;;;;;;2.80;2.65;;;;;24.10;100814.00;;;;2070804;28;20210;-57
2021/06/11 02:54:57;;;;;;;3.20;2.90;;;;;24.10;100805.00;;;;2078260;28;20216;-60
2021/06/11 02:55:59;;;;;;;2.70;2.50;;;;;24.10;100802.00;;;;2081062;28;20300;-60
2021/06/11 02:57:23;;;;;;;2.85;2.65;;;;;24.10;100811.00;;;;2072679;28;20589;-60
2021/06/11 02:58:25;;;;;;;2.35;2.25;;;;;24.10;100809.00;;;;2089465;28;20289;-59
2021/06/11 02:59:31;;;;;;;2.47;2.30;;;;;24.10;100813.00;;;;2083311;28;20278;-57
2021/06/11 03:00:31;;;;;;;2.45;2.35;;;;;24.10;100812.00;;;;2079386;28;20229;-58
2021/06/11 03:01:35;;;;;;;2.73;2.53;;;;;24.10;100802.00;;;;2083587;28;20223;-58
2021/06/11 03:02:37;;;;;;;2.60;2.40;;;;;24.10;100812.00;;;;2086039;28;20217;-58
2021/06/11 03:03:38;;;;;;;3.00;2.80;;;;;24.10;100811.00;;;;2086568;28;20724;-58
2021/06/11 03:04:40;;;;;;;2.60;2.40;;;;;24.10;100809.00;;;;2086469;28;20209;-59
2021/06/11 03:05:40;;;;;;;2.80;2.60;;;;;24.10;100805.00;;;;2078199;28;21157;-57
2021/06/11 03:06:42;;;;;;;2.83;2.63;;;;;24.10;100808.00;;;;2078476;28;20216;-58
2021/06/11 03:07:48;;;;;;;2.58;2.47;;;;;24.10;100794.00;;;;2078225;28;20214;-61
2021/06/11 03:08:49;;;;;;;2.80;2.60;;;;;24.10;100805.00;;;;2077031;28;20225;-59
2021/06/11 03:09:50;;;;;;;2.70;2.50;;;;;24.10;100806.00;;;;2073799;28;20215;-59
2021/06/11 03:10:53;;;;;;;2.85;2.65;;;;;24.10;100810.00;;;;2062208;28;20237;-59
2021/06/11 03:11:54;;;;;;;2.83;2.63;;;;;24.10;100806.00;;;;2074303;28;20221;-58
2021/06/11 03:12:58;;;;;;;2.80;2.60;;;;;24.10;100802.00;;;;2069775;28;20317;-56
2021/06/11 03:13:58;;;;;;;2.80;2.60;;;;;24.10;100813.00;;;;2075188;28;20762;-59
2021/06/11 03:14:59;;;;;;;2.50;2.40;;;;;24.10;100811.00;;;;2069969;28;20253;-56
2021/06/11 03:16:00;;;;;;;2.77;2.57;;;;;24.10;100808.00;;;;2071643;28;20304;-59
2021/06/11 03:17:01;;;;;;;2.60;2.40;;;;;24.10;100816.00;;;;2071672;28;20244;-59
2021/06/11 03:18:03;;;;;;;2.77;2.57;;;;;24.10;100808.00;;;;2076664;28;20279;-59
2021/06/11 03:19:06;;;;;;;2.97;2.78;;;;;24.10;100813.00;;;;2078302;28;20232;-59
2021/06/11 03:20:08;;;;;;;3.20;2.60;;;;;24.10;100804.00;;;;2077891;28;20210;-58
2021/06/11 03:21:24;;;;;;;2.45;2.35;;;;;24.10;100803.00;;;;2076994;28;20217;-58
2021/06/11 03:22:29;;;;;;;3.25;2.97;;;;;24.10;100802.00;;;;2086359;28;20227;-57
2021/06/11 03:23:32;;;;;;;2.42;2.33;;;;;24.10;100803.00;;;;2077323;28;20245;-58
2021/06/11 03:24:44;;;;;;;2.70;2.50;;;;;24.10;100803.00;;;;2078007;28;20675;-61
2021/06/11 03:25:48;;;;;;;3.25;3.05;;;;;24.10;100799.00;;;;2094683;28;20226;-60
2021/06/11 03:26:50;;;;;;;2.63;2.42;;;;;24.10;100804.00;;;;2085437;28;20201;-62
2021/06/11 03:28:03;;;;;;;2.53;2.42;;;;;24.10;100797.00;;;;2077816;28;20213;-60
2021/06/11 03:29:03;;;;;;;3.25;2.50;;;;;24.10;100794.00;;;;2076345;28;20225;-56
2021/06/11 03:30:13;;;;;;;3.00;2.80;;;;;24.10;100797.00;;;;2070011;28;20206;-58
2021/06/11 03:31:33;;;;;;;2.97;2.78;;;;;24.10;100801.00;;;;2061680;28;20346;-59
2021/06/11 03:32:38;;;;;;;2.80;2.60;;;;;24.10;100806.00;;;;2064444;28;20215;-60
2021/06/11 03:33:39;;;;;;;2.90;2.70;;;;;24.10;100804.00;;;;2069873;28;20314;-60
2021/06/11 03:34:41;;;;;;;3.07;2.87;;;;;24.10;100804.00;;;;2073270;28;20706;-59
2021/06/11 03:35:45;;;;;;;2.75;2.55;;;;;24.10;100805.00;;;;2072337;28;20247;-57
2021/06/11 03:36:46;;;;;;;2.85;2.65;;;;;24.10;100803.00;;;;2077887;28;20336;-57
2021/06/11 03:37:50;;;;;;;2.90;2.70;;;;;24.10;100802.00;;;;2077718;28;20221;-58
2021/06/11 03:38:53;;;;;;;3.15;2.95;;;;;24.10;100805.00;;;;2086096;28;20213;-60
2021/06/11 03:39:56;;;;;;;3.20;3.00;;;;;24.10;100807.00;;;;2085680;28;20686;-61
2021/06/11 03:40:57;;;;;;;2.72;2.53;;;;;24.10;100814.00;;;;2062908;28;20219;-59
2021/06/11 03:41:57;;;;;;;2.87;2.67;;;;;24.10;100811.00;;;;2068851;28;20248;-59
2021/06/11 03:42:58;;;;;;;3.10;2.90;;;;;24.10;100811.00;;;;2070473;28;20281;-58
2021/06/11 03:43:58;;;;;;;2.90;2.70;;;;;24.10;100808.00;;;;2084468;28;20205;-59
2021/06/11 03:44:59;;;;;;;2.60;2.50;;;;;24.10;100817.00;;;;2074460;28;20210;-59
2021/06/11 03:45:59;;;;;;;2.50;2.40;;;;;24.10;100813.00;;;;2074503;28;20205;-58
2021/06/11 03:47:00;;;;;;;2.87;2.67;;;;;24.10;100820.00;;;;2063061;28;20509;-56
2021/06/11 03:48:00;;;;;;;2.70;2.50;;;;;24.10;100820.00;;;;2062089;28;20751;-58
2021/06/11 03:49:01;;;;;;;2.83;2.63;;;;;24.10;100816.00;;;;2071149;28;20209;-59
2021/06/11 03:50:02;;;;;;;2.87;2.67;;;;;24.10;100819.00;;;;2078642;28;20248;-59
2021/06/11 03:51:02;;;;;;;2.80;2.60;;;;;24.00;100815.00;;;;2077234;28;20213;-59
2021/06/11 03:52:03;;;;;;;3.00;2.80;;;;;24.00;100814.00;;;;2078485;28;20263;-58
2021/06/11 03:53:04;;;;;;;3.53;3.23;;;;;24.10;100811.00;;;;2070260;28;20549;-58
2021/06/11 03:54:07;;;;;;;3.10;2.90;;;;;24.10;100816.00;;;;2065773;28;20262;-58
2021/06/11 03:55:21;;;;;;;3.38;3.17;;;;;24.10;100811.00;;;;2076610;28;20560;-60
2021/06/11 03:56:21;;;;;;;2.70;2.50;;;;;24.10;100820.00;;;;2076773;28;20217;-58
2021/06/11 03:57:22;;;;;;;4.40;3.00;;;;;24.10;100810.00;;;;2073158;28;20244;-59
2021/06/11 03:58:36;;;;;;;2.90;2.70;;;;;24.00;100815.00;;;;2069453;28;20222;-64
2021/06/11 03:59:37;;;;;;;3.10;2.90;;;;;24.10;100825.00;;;;2069933;28;20248;-57
2021/06/11 04:00:37;;;;;;;3.00;2.80;;;;;24.10;100805.00;;;;2071237;28;20218;-60
2021/06/11 04:01:47;;;;;;;3.10;2.90;;;;;24.00;100813.00;;;;2076950;28;20216;-58
2021/06/11 04:02:48;;;;;;;3.00;2.80;;;;;24.00;100811.00;;;;2078077;28;20222;-60
2021/06/11 04:03:48;;;;;;;2.67;2.57;;;;;24.10;100807.00;;;;2077741;28;20348;-57
2021/06/11 04:04:49;;;;;;;3.00;2.80;;;;;24.10;100814.00;;;;2078191;28;20296;-59
2021/06/11 04:05:51;;;;;;;2.90;2.70;;;;;24.00;100808.00;;;;2078710;28;20217;-60
2021/06/11 04:06:54;;;;;;;3.05;2.85;;;;;24.10;100808.00;;;;2078201;28;20233;-60
2021/06/11 04:07:56;;;;;;;3.15;2.95;;;;;24.00;100812.00;;;;2078176;28;20971;-57
2021/06/11 04:08:59;;;;;;;2.85;2.70;;;;;24.10;100815.00;;;;2078294;28;20268;-56
2021/06/11 04:10:05;;;;;;;2.70;2.50;;;;;24.10;100806.00;;;;2078429;28;20554;-60
2021/06/11 04:11:06;;;;;;;3.10;2.90;;;;;24.10;100812.00;;;;2077616;28;20710;-59
2021/06/11 04:12:08;;;;;;;2.60;2.45;;;;;24.10;100813.00;;;;2086597;28;20311;-57
2021/06/11 04:13:13;;;;;;;3.00;2.80;;;;;24.10;100812.00;;;;2078359;28;20209;-59
2021/06/11 04:14:34;;;;;;;3.20;3.00;;;;;24.00;100813.00;;;;2076689;28;20202;-59
2021/06/11 04:15:34;;;;;;;3.17;2.97;;;;;24.10;100812.00;;;;2063245;28;20332;-59
2021/06/11 04:16:45;;;;;;;2.80;2.60;;;;;24.00;100806.00;;;;2062834;28;20727;-56
2021/06/11 04:17:50;;;;;;;2.80;2.60;;;;;24.00;100797.00;;;;2071563;28;20226;-58
2021/06/11 04:18:52;;;;;;;3.08;2.88;;;;;24.10;100810.00;;;;2082924;28;20263;-57
2021/06/11 04:19:54;;;;;;;3.10;2.90;;;;;24.10;100807.00;;;;2086537;28;20282;-60
2021/06/11 04:20:58;;;;;;;2.95;2.75;;;;;24.10;100809.00;;;;2069834;28;20214;-56
2021/06/11 04:21:58;;;;;;;3.33;3.03;;;;;24.10;100794.00;;;;2077722;28;20213;-60
2021/06/11 04:23:00;;;;;;;2.90;2.70;;;;;24.10;100802.00;;;;2070321;28;20280;-57
2021/06/11 04:24:06;;;;;;;2.80;2.60;;;;;24.10;100805.00;;;;2070497;28;20260;-58
2021/06/11 04:25:07;;;;;;;3.03;2.83;;;;;24.10;100815.00;;;;2077519;28;20727;-55
2021/06/11 04:26:07;;;;;;;3.40;3.20;;;;;24.10;100813.00;;;;2070082;28;20300;-57
2021/06/11 04:27:08;;;;;;;2.87;2.73;;;;;24.10;100800.00;;;;2077974;28;20218;-60
2021/06/11 04:28:08;;;;;;;3.10;2.90;;;;;24.10;100817.00;;;;2068201;28;20233;-58
2021/06/11 04:29:10;;;;;;;3.33;3.10;;;;;24.10;100814.00;;;;2086529;28;20232;-56
2021/06/11 04:30:11;;;;;;;2.80;2.60;;;;;24.00;100815.00;;;;2092103;28;20242;-60
2021/06/11 04:31:12;;;;;;;3.17;2.97;;;;;24.10;100801.00;;;;2077099;28;20202;-57
2021/06/11 04:32:12;;;;;;;3.03;2.77;;;;;24.10;100816.00;;;;2078372;28;20452;-58
2021/06/11 04:33:22;;;;;;;3.00;2.80;;;;;24.10;100820.00;;;;2078170;28;20216;-57
2021/06/11 04:34:26;;;;;;;2.90;2.70;;;;;24.10;100820.00;;;;2068240;28;20275;-59
2021/06/11 04:35:27;;;;;;;2.88;2.67;;;;;24.10;100809.00;;;;2070245;28;20214;-58
2021/06/11 04:36:27;;;;;;;2.92;2.72;;;;;24.10;100813.00;;;;2069127;28;20704;-57
2021/06/11 04:37:28;;;;;;;3.10;2.90;;;;;24.10;100818.00;;;;2070900;28;20214;-60
2021/06/11 04:38:29;;;;;;;3.20;2.80;;;;;24.10;100816.00;;;;2071343;28;20616;-58
2021/06/11 04:39:29;;;;;;;3.15;2.95;;;;;24.10;100813.00;;;;2069928;28;20218;-56
2021/06/11 04:40:30;;;;;;;3.03;2.83;;;;;24.10;100812.00;;;;2075427;28;20214;-57
2021/06/11 04:41:30;;;;;;;3.00;2.80;;;;;24.10;100815.00;;;;2077121;28;20226;-57
2021/06/11 04:42:32;;;;;;;3.30;3.10;;;;;24.10;100809.00;;;;2079013;28;20528;-58
2021/06/11 04:43:32;;;;;;;2.97;2.80;;;;;24.10;100807.00;;;;2079136;28;20230;-56
2021/06/11 04:44:33;;;;;;;3.27;3.07;;;;;24.10;100808.00;;;;2071374;28;20211;-59
2021/06/11 04:45:34;;;;;;;3.07;2.87;;;;;24.10;100808.00;;;;2074160;28;20206;-58
2021/06/11 04:46:34;;;;;;;3.40;3.20;;;;;24.10;100809.00;;;;2073235;28;20312;-59
2021/06/11 04:47:35;;;;;;;2.87;2.67;;;;;24.10;100811.00;;;;2070255;28;20304;-56
2021/06/11 04:48:35;;;;;;;3.20;3.00;;;;;24.10;100808.00;;;;2070580;28;20211;-56
2021/06/11 04:49:36;;;;;;;2.80;2.60;;;;;24.10;100819.00;;;;2070902;28;20214;-56
2021/06/11 04:50:37;;;;;;;2.80;2.70;;;;;24.10;100812.00;;;;2070882;28;20338;-60
2021/06/11 04:51:37;;;;;;;2.80;2.60;;;;;24.10;100807.00;;;;2068785;28;20222;-59
2021/06/11 04:52:37;;;;;;;3.37;3.17;;;;;24.10;100819.00;;;;2070613;28;20210;-60
2021/06/11 04:53:38;;;;;;;3.50;3.20;;;;;24.10;100807.00;;;;2070826;28;20548;-57
2021/06/11 04:54:38;;;;;;;2.80;2.60;;;;;24.10;100812.00;;;;2069927;28;20561;-57
2021/06/11 04:55:38;;;;;;;2.97;2.77;;;;;24.10;100809.00;;;;2070246;28;20210;-59
2021/06/11 04:56:39;;;;;;;2.93;2.73;;;;;24.10;100811.00;;;;2070188;28;20230;-59
2021/06/11 04:57:39;;;;;;;3.03;2.83;;;;;24.10;100809.00;;;;2070064;28;20206;-60
2021/06/11 04:58:40;;;;;;;2.80;2.60;;;;;24.10;100802.00;;;;2070251;28;20202;-60
2021/06/11 04:59:40;;;;;;;3.30;3.10;;;;;24.10;100811.00;;;;2066802;28;20219;-57
2021/06/11 05:00:41;;;;;;;2.97;2.77;;;;;24.10;100808.00;;;;2069269;28;20210;-60
2021/06/11 05:01:41;;;;;;;3.30;3.10;;;;;24.10;100807.00;;;;2069208;28;20217;-59
2021/06/11 05:02:41;;;;;;;3.20;3.00;;;;;24.10;100802.00;;;;2070447;28;20253;-59
2021/06/11 05:03:42;;;;;;;2.87;2.67;;;;;24.10;100808.00;;;;2069939;28;20214;-58
2021/06/11 05:04:42;;;;;;;3.07;2.87;;;;;24.10;100797.00;;;;2070023;28;20715;-59
2021/06/11 05:05:42;;;;;;;3.30;3.00;;;;;24.10;100798.00;;;;2070195;28;20293;-59
2021/06/11 05:06:43;;;;;;;3.10;2.90;;;;;24.10;100797.00;;;;2071460;28;20210;-56
2021/06/11 05:07:43;;;;;;;2.90;2.70;;;;;24.10;100798.00;;;;2071377;28;20206;-60